createdAt,value
2023-02-11T00:00:06.117Z,-3.10
2023-02-11T00:00:28.840Z,-3.00
2023-02-11T00:00:52.950Z,-3.00
2023-02-11T00:01:19.453Z,-3.00
2023-02-11T00:01:42.253Z,-3.00
2023-02-11T00:02:05.454Z,-3.00
2023-02-11T00:02:30.000Z,-3.00
2023-02-11T00:02:52.954Z,-3.00
2023-02-11T00:03:15.737Z,-3.00
2023-02-11T00:03:39.869Z,-3.00
2023-02-11T00:04:03.385Z,-3.00
2023-02-11T00:04:26.079Z,-3.10
2023-02-11T00:04:48.945Z,-3.10
2023-02-11T00:05:11.717Z,-3.00
2023-02-11T00:05:34.557Z,-3.00
2023-02-11T00:05:59.214Z,-3.00
2023-02-11T00:06:21.937Z,-3.00
2023-02-11T00:06:44.708Z,-3.00
2023-02-11T00:07:07.445Z,-3.00
2023-02-11T00:07:30.215Z,-3.00
2023-02-11T00:07:52.906Z,-3.00
2023-02-11T00:08:17.121Z,-3.00
2023-02-11T00:08:39.838Z,-3.00
2023-02-11T00:09:02.620Z,-3.00
2023-02-11T00:09:25.430Z,-3.00
2023-02-11T00:09:48.259Z,-3.10
2023-02-11T00:10:11.047Z,-3.10
2023-02-11T00:10:33.760Z,-3.10
2023-02-11T00:10:57.300Z,-3.10
2023-02-11T00:11:21.286Z,-3.10
2023-02-11T00:11:44.073Z,-3.10
2023-02-11T00:12:06.872Z,-3.10
2023-02-11T00:12:29.634Z,-3.10
2023-02-11T00:12:52.284Z,-3.10
2023-02-11T00:13:15.035Z,-3.10
2023-02-11T00:13:37.755Z,-3.10
2023-02-11T00:14:02.395Z,-3.10
2023-02-11T00:14:25.244Z,-3.10
2023-02-11T00:14:48.025Z,-3.10
2023-02-11T00:15:10.982Z,-3.10
2023-02-11T00:15:33.719Z,-3.10
2023-02-11T00:15:57.915Z,-3.10
2023-02-11T00:16:21.038Z,-3.10
2023-02-11T00:16:43.823Z,-3.10
2023-02-11T00:17:06.537Z,-3.10
2023-02-11T00:17:29.277Z,-3.10
2023-02-11T00:17:51.951Z,-3.10
2023-02-11T00:18:14.827Z,-3.10
2023-02-11T00:18:37.598Z,-3.10
2023-02-11T00:19:00.583Z,-3.10
2023-02-11T00:19:23.432Z,-3.10
2023-02-11T00:19:49.071Z,-3.10
2023-02-11T00:20:11.842Z,-3.10
2023-02-11T00:20:34.664Z,-3.10
2023-02-11T00:20:57.448Z,-3.10
2023-02-11T00:21:21.638Z,-3.10
2023-02-11T00:21:44.307Z,-3.10
2023-02-11T00:22:07.045Z,-3.10
2023-02-11T00:22:29.871Z,-3.10
2023-02-11T00:22:52.650Z,-3.10
2023-02-11T00:23:15.355Z,-3.20
2023-02-11T00:23:38.161Z,-3.10
2023-02-11T00:24:02.446Z,-3.20
2023-02-11T00:24:25.208Z,-3.20
2023-02-11T00:24:48.306Z,-3.20
2023-02-11T00:25:11.081Z,-3.10
2023-02-11T00:25:33.827Z,-3.20
2023-02-11T00:25:56.638Z,-3.20
2023-02-11T00:26:20.412Z,-3.10
2023-02-11T00:26:43.185Z,-3.20
2023-02-11T00:27:05.855Z,-3.20
2023-02-11T00:27:28.561Z,-3.20
2023-02-11T00:27:54.103Z,-3.10
2023-02-11T00:28:17.606Z,-3.20
2023-02-11T00:28:40.885Z,-3.20
2023-02-11T00:29:03.833Z,-3.20
2023-02-11T00:29:26.620Z,-3.20
2023-02-11T00:29:49.396Z,-3.20
2023-02-11T00:30:12.904Z,-3.20
2023-02-11T00:30:35.770Z,-3.30
2023-02-11T00:31:02.731Z,-3.30
2023-02-11T00:31:25.986Z,-3.30
2023-02-11T00:31:49.194Z,-3.30
2023-02-11T00:32:12.014Z,-3.30
2023-02-11T00:32:34.867Z,-3.30
2023-02-11T00:32:57.738Z,-3.30
2023-02-11T00:33:20.419Z,-3.30
2023-02-11T00:33:43.162Z,-3.30
2023-02-11T00:34:05.909Z,-3.30
2023-02-11T00:34:28.634Z,-3.20
2023-02-11T00:34:52.645Z,-3.20
2023-02-11T00:35:15.388Z,-3.30
2023-02-11T00:35:38.805Z,-3.30
2023-02-11T00:36:04.467Z,-3.20
2023-02-11T00:36:28.224Z,-3.20
2023-02-11T00:36:52.024Z,-3.20
2023-02-11T00:37:14.706Z,-3.30
2023-02-11T00:37:37.427Z,-3.20
2023-02-11T00:38:00.180Z,-3.20
2023-02-11T00:38:22.890Z,-3.30
2023-02-11T00:38:45.907Z,-3.20
2023-02-11T00:39:08.714Z,-3.30
2023-02-11T00:39:31.536Z,-3.30
2023-02-11T00:39:54.431Z,-3.30
2023-02-11T00:40:17.470Z,-3.30
2023-02-11T00:40:40.254Z,-3.30
2023-02-11T00:41:03.022Z,-3.30
2023-02-11T00:41:26.265Z,-3.30
2023-02-11T00:41:49.010Z,-3.30
2023-02-11T00:42:14.054Z,-3.30
2023-02-11T00:42:37.571Z,-3.30
2023-02-11T00:43:00.353Z,-3.30
2023-02-11T00:43:22.987Z,-3.30
2023-02-11T00:43:45.731Z,-3.30
2023-02-11T00:44:08.504Z,-3.30
2023-02-11T00:44:31.225Z,-3.30
2023-02-11T00:44:54.060Z,-3.30
2023-02-11T00:45:17.015Z,-3.30
2023-02-11T00:45:39.715Z,-3.30
2023-02-11T00:46:04.062Z,-3.30
2023-02-11T00:46:26.841Z,-3.30
2023-02-11T00:46:49.716Z,-3.30
2023-02-11T00:47:12.494Z,-3.30
2023-02-11T00:47:35.101Z,-3.30
2023-02-11T00:47:57.886Z,-3.30
2023-02-11T00:48:20.631Z,-3.30
2023-02-11T00:48:43.480Z,-3.40
2023-02-11T00:49:06.174Z,-3.40
2023-02-11T00:49:28.937Z,-3.40
2023-02-11T00:49:52.696Z,-3.40
2023-02-11T00:50:15.518Z,-3.40
2023-02-11T00:50:38.235Z,-3.40
2023-02-11T00:51:01.029Z,-3.40
2023-02-11T00:51:23.735Z,-3.40
2023-02-11T00:51:46.415Z,-3.40
2023-02-11T00:52:09.132Z,-3.40
2023-02-11T00:52:31.825Z,-3.40
2023-02-11T00:52:54.580Z,-3.30
2023-02-11T00:53:17.275Z,-3.30
2023-02-11T00:53:40.018Z,-3.30
2023-02-11T00:54:02.715Z,-3.30
2023-02-11T00:54:26.214Z,-3.30
2023-02-11T00:54:50.107Z,-3.30
2023-02-11T00:55:12.812Z,-3.30
2023-02-11T00:55:35.749Z,-3.30
2023-02-11T00:55:58.621Z,-3.30
2023-02-11T00:56:21.290Z,-3.30
2023-02-11T00:56:44.064Z,-3.30
2023-02-11T00:57:06.778Z,-3.30
2023-02-11T00:57:29.362Z,-3.30
2023-02-11T00:57:52.501Z,-3.30
2023-02-11T00:58:15.414Z,-3.30
2023-02-11T00:58:38.204Z,-3.30
2023-02-11T00:59:00.963Z,-3.30
2023-02-11T00:59:23.668Z,-3.30
2023-02-11T00:59:46.400Z,-3.30
2023-02-11T01:00:12.159Z,-3.30
2023-02-11T01:00:34.918Z,-3.30
2023-02-11T01:00:57.721Z,-3.30
2023-02-11T01:01:21.815Z,-3.30
2023-02-11T01:01:44.622Z,-3.30
2023-02-11T01:02:07.394Z,-3.30
2023-02-11T01:02:30.063Z,-3.30
2023-02-11T01:02:52.776Z,-3.30
2023-02-11T01:03:15.497Z,-3.30
2023-02-11T01:03:38.427Z,-3.30
2023-02-11T01:04:01.215Z,-3.30
2023-02-11T01:04:23.936Z,-3.30
2023-02-11T01:04:46.672Z,-3.30
2023-02-11T01:05:09.496Z,-3.30
2023-02-11T01:05:32.394Z,-3.30
2023-02-11T01:05:55.461Z,-3.20
2023-02-11T01:06:18.247Z,-3.30
2023-02-11T01:06:40.964Z,-3.30
2023-02-11T01:07:03.761Z,-3.30
2023-02-11T01:07:26.567Z,-3.30
2023-02-11T01:07:49.477Z,-3.30
2023-02-11T01:08:12.307Z,-3.30
2023-02-11T01:08:35.121Z,-3.30
2023-02-11T01:08:57.847Z,-3.30
2023-02-11T01:09:21.362Z,-3.30
2023-02-11T01:09:44.132Z,-3.30
2023-02-11T01:10:07.118Z,-3.30
2023-02-11T01:10:29.844Z,-3.30
2023-02-11T01:10:56.493Z,-3.30
2023-02-11T01:11:20.344Z,-3.20
2023-02-11T01:11:43.121Z,-3.20
2023-02-11T01:12:06.188Z,-3.20
2023-02-11T01:12:28.948Z,-3.20
2023-02-11T01:12:51.624Z,-3.20
2023-02-11T01:13:14.332Z,-3.20
2023-02-11T01:13:39.769Z,-3.20
2023-02-11T01:14:02.464Z,-3.20
2023-02-11T01:14:25.209Z,-3.20
2023-02-11T01:14:47.959Z,-3.20
2023-02-11T01:15:11.989Z,-3.20
2023-02-11T01:15:34.845Z,-3.20
2023-02-11T01:15:57.598Z,-3.30
2023-02-11T01:16:21.966Z,-3.20
2023-02-11T01:16:45.014Z,-3.20
2023-02-11T01:17:07.757Z,-3.20
2023-02-11T01:17:30.464Z,-3.20
2023-02-11T01:17:53.120Z,-3.20
2023-02-11T01:18:15.832Z,-3.20
2023-02-11T01:18:38.553Z,-3.20
2023-02-11T01:19:01.289Z,-3.20
2023-02-11T01:19:24.083Z,-3.20
2023-02-11T01:19:46.808Z,-3.20
2023-02-11T01:20:12.485Z,-3.20
2023-02-11T01:20:35.392Z,-3.20
2023-02-11T01:20:58.321Z,-3.20
2023-02-11T01:21:21.138Z,-3.20
2023-02-11T01:21:43.843Z,-3.30
2023-02-11T01:22:06.621Z,-3.20
2023-02-11T01:22:29.324Z,-3.20
2023-02-11T01:22:52.019Z,-3.20
2023-02-11T01:23:15.815Z,-3.30
2023-02-11T01:23:38.529Z,-3.30
2023-02-11T01:24:01.240Z,-3.30
2023-02-11T01:24:23.930Z,-3.30
2023-02-11T01:24:46.641Z,-3.30
2023-02-11T01:25:09.414Z,-3.30
2023-02-11T01:25:32.165Z,-3.30
2023-02-11T01:25:54.904Z,-3.40
2023-02-11T01:26:17.606Z,-3.40
2023-02-11T01:26:40.361Z,-3.40
2023-02-11T01:27:03.160Z,-3.40
2023-02-11T01:27:25.922Z,-3.40
2023-02-11T01:27:48.635Z,-3.40
2023-02-11T01:28:16.509Z,-3.40
2023-02-11T01:28:39.306Z,-3.40
2023-02-11T01:29:02.375Z,-3.40
2023-02-11T01:29:25.123Z,-3.40
2023-02-11T01:29:47.876Z,-3.40
2023-02-11T01:30:12.405Z,-3.40
2023-02-11T01:30:35.112Z,-3.40
2023-02-11T01:30:57.843Z,-3.40
2023-02-11T01:31:22.084Z,-3.40
2023-02-11T01:31:46.215Z,-3.40
2023-02-11T01:32:09.040Z,-3.40
2023-02-11T01:32:31.919Z,-3.40
2023-02-11T01:32:54.802Z,-3.50
2023-02-11T01:33:17.580Z,-3.50
2023-02-11T01:33:40.414Z,-3.50
2023-02-11T01:34:03.136Z,-3.50
2023-02-11T01:34:26.046Z,-3.50
2023-02-11T01:34:48.806Z,-3.50
2023-02-11T01:35:11.570Z,-3.60
2023-02-11T01:35:34.330Z,-3.60
2023-02-11T01:36:00.041Z,-3.60
2023-02-11T01:36:22.721Z,-3.60
2023-02-11T01:36:45.609Z,-3.60
2023-02-11T01:37:08.735Z,-3.70
2023-02-11T01:37:33.470Z,-3.60
2023-02-11T01:37:56.166Z,-3.60
2023-02-11T01:38:20.189Z,-3.60
2023-02-11T01:38:44.718Z,-3.70
2023-02-11T01:39:08.956Z,-3.60
2023-02-11T01:39:34.287Z,-3.70
2023-02-11T01:39:57.030Z,-3.60
2023-02-11T01:40:20.001Z,-3.60
2023-02-11T01:40:47.955Z,-3.70
2023-02-11T01:41:12.110Z,-3.60
2023-02-11T01:41:34.853Z,-3.60
2023-02-11T01:41:57.571Z,-3.60
2023-02-11T01:42:21.766Z,-3.60
2023-02-11T01:42:44.417Z,-3.60
2023-02-11T01:43:07.190Z,-3.60
2023-02-11T01:43:32.494Z,-3.60
2023-02-11T01:43:55.214Z,-3.60
2023-02-11T01:44:25.961Z,-3.70
2023-02-11T01:44:49.760Z,-3.60
2023-02-11T01:45:54.568Z,-3.60
2023-02-11T01:46:32.473Z,-3.60
2023-02-11T01:46:55.409Z,-3.60
2023-02-11T01:47:18.185Z,-3.60
2023-02-11T01:47:40.925Z,-3.60
2023-02-11T01:48:05.150Z,-3.60
2023-02-11T01:48:30.107Z,-3.70
2023-02-11T01:48:53.459Z,-3.70
2023-02-11T01:49:18.212Z,-3.70
2023-02-11T01:49:42.726Z,-3.70
2023-02-11T01:50:05.765Z,-3.60
2023-02-11T01:50:28.549Z,-3.60
2023-02-11T01:50:52.972Z,-3.60
2023-02-11T01:51:19.069Z,-3.60
2023-02-11T01:51:44.325Z,-3.60
2023-02-11T01:52:09.298Z,-3.60
2023-02-11T01:52:32.957Z,-3.60
2023-02-11T01:53:15.655Z,-3.60
2023-02-11T01:53:56.790Z,-3.70
2023-02-11T01:54:36.837Z,-3.60
2023-02-11T01:55:19.446Z,-3.60
2023-02-11T01:56:00.449Z,-3.60
2023-02-11T01:56:42.073Z,-3.60
2023-02-11T01:57:22.853Z,-3.60
2023-02-11T01:57:47.835Z,-3.60
2023-02-11T01:58:10.534Z,-3.60
2023-02-11T01:58:33.351Z,-3.70
2023-02-11T01:58:57.123Z,-3.70
2023-02-11T01:59:22.896Z,-3.70
2023-02-11T02:00:02.287Z,-3.70
2023-02-11T02:00:25.885Z,-3.60
2023-02-11T02:00:49.253Z,-3.60
2023-02-11T02:01:12.992Z,-3.70
2023-02-11T02:01:37.235Z,-3.60
2023-02-11T02:02:03.695Z,-3.60
2023-02-11T02:02:30.155Z,-3.70
2023-02-11T02:02:55.206Z,-3.60
2023-02-11T02:03:20.325Z,-3.60
2023-02-11T02:03:44.048Z,-3.70
2023-02-11T02:04:06.827Z,-3.60
2023-02-11T02:04:31.786Z,-3.60
2023-02-11T02:04:57.922Z,-3.60
2023-02-11T02:05:25.149Z,-3.60
2023-02-11T02:05:49.508Z,-3.60
2023-02-11T02:06:16.013Z,-3.70
2023-02-11T02:06:42.959Z,-3.70
2023-02-11T02:07:08.479Z,-3.60
2023-02-11T02:07:34.235Z,-3.60
2023-02-11T02:08:07.075Z,-3.70
2023-02-11T02:08:32.334Z,-3.70
2023-02-11T02:08:57.265Z,-3.60
2023-02-11T02:09:22.876Z,-3.70
2023-02-11T02:09:49.123Z,-3.70
2023-02-11T02:10:14.709Z,-3.60
2023-02-11T02:10:38.137Z,-3.60
2023-02-11T02:11:01.112Z,-3.70
2023-02-11T02:11:26.514Z,-3.60
2023-02-11T02:11:49.338Z,-3.70
2023-02-11T02:12:12.224Z,-3.70
2023-02-11T02:12:34.976Z,-3.60
2023-02-11T02:12:57.601Z,-3.70
2023-02-11T02:13:20.425Z,-3.70
2023-02-11T02:13:43.196Z,-3.70
2023-02-11T02:14:08.638Z,-3.70
2023-02-11T02:14:31.360Z,-3.70
2023-02-11T02:15:18.433Z,-3.70
2023-02-11T02:15:43.396Z,-3.70
2023-02-11T02:16:09.631Z,-3.70
2023-02-11T02:16:33.996Z,-3.70
2023-02-11T02:16:58.186Z,-3.80
2023-02-11T02:17:27.032Z,-3.80
2023-02-11T02:17:57.762Z,-3.70
2023-02-11T02:18:33.712Z,-3.80
2023-02-11T02:19:05.930Z,-3.70
2023-02-11T02:19:50.396Z,-3.70
2023-02-11T02:20:51.231Z,-3.70
2023-02-11T02:21:43.426Z,-3.70
2023-02-11T02:22:33.456Z,-3.70
2023-02-11T02:23:17.294Z,-3.70
2023-02-11T02:23:51.706Z,-3.80
2023-02-11T02:24:56.839Z,-3.70
2023-02-11T02:25:44.976Z,-3.80
2023-02-11T02:26:29.435Z,-3.80
2023-02-11T02:27:18.615Z,-3.80
2023-02-11T02:27:46.155Z,-3.80
2023-02-11T02:28:17.468Z,-3.80
2023-02-11T02:29:11.686Z,-3.90
2023-02-11T02:30:15.669Z,-3.90
2023-02-11T02:30:50.890Z,-3.90
2023-02-11T02:31:28.979Z,-3.90
2023-02-11T02:32:05.552Z,-3.90
2023-02-11T02:32:40.519Z,-3.90
2023-02-11T02:33:22.435Z,-3.90
2023-02-11T02:33:48.880Z,-3.90
2023-02-11T02:34:14.567Z,-3.90
2023-02-11T02:34:39.410Z,-3.90
2023-02-11T02:35:05.295Z,-3.90
2023-02-11T02:35:32.028Z,-3.90
2023-02-11T02:36:03.088Z,-3.90
2023-02-11T02:36:31.029Z,-3.90
2023-02-11T02:36:57.272Z,-3.90
2023-02-11T02:37:22.218Z,-3.80
2023-02-11T02:37:48.155Z,-3.90
2023-02-11T02:38:13.500Z,-3.90
2023-02-11T02:38:39.028Z,-3.80
2023-02-11T02:39:04.959Z,-3.80
2023-02-11T02:39:29.584Z,-3.80
2023-02-11T02:39:52.420Z,-3.80
2023-02-11T02:40:17.213Z,-3.80
2023-02-11T02:40:43.275Z,-3.80
2023-02-11T02:41:08.511Z,-3.80
2023-02-11T02:41:32.958Z,-3.80
2023-02-11T02:41:55.673Z,-3.80
2023-02-11T02:42:18.470Z,-3.80
2023-02-11T02:42:41.280Z,-3.90
2023-02-11T02:43:04.186Z,-3.80
2023-02-11T02:43:27.435Z,-3.80
2023-02-11T02:43:50.519Z,-3.90
2023-02-11T02:44:13.263Z,-3.90
2023-02-11T02:44:35.997Z,-3.90
2023-02-11T02:44:58.793Z,-3.90
2023-02-11T02:45:21.564Z,-3.90
2023-02-11T02:45:44.234Z,-3.90
2023-02-11T02:46:14.916Z,-3.90
2023-02-11T02:46:37.678Z,-3.90
2023-02-11T02:47:00.649Z,-3.90
2023-02-11T02:47:23.375Z,-3.90
2023-02-11T02:47:47.600Z,-3.90
2023-02-11T02:48:29.857Z,-3.90
2023-02-11T02:48:53.022Z,-3.90
2023-02-11T02:49:16.491Z,-4.00
2023-02-11T02:49:39.284Z,-4.00
2023-02-11T02:50:02.024Z,-3.90
2023-02-11T02:50:30.372Z,-3.90
2023-02-11T02:50:55.238Z,-4.00
2023-02-11T02:51:30.477Z,-4.00
2023-02-11T02:52:05.916Z,-4.00
2023-02-11T02:52:33.756Z,-4.00
2023-02-11T02:53:02.048Z,-4.00
2023-02-11T02:53:27.462Z,-4.00
2023-02-11T02:53:58.137Z,-4.10
2023-02-11T02:54:55.827Z,-4.00
2023-02-11T02:55:27.671Z,-4.00
2023-02-11T02:55:55.358Z,-4.00
2023-02-11T02:56:20.148Z,-4.10
2023-02-11T02:56:45.447Z,-4.10
2023-02-11T02:57:14.903Z,-4.10
2023-02-11T02:57:42.902Z,-4.10
2023-02-11T02:58:43.125Z,-4.10
2023-02-11T02:59:24.261Z,-4.10
2023-02-11T02:59:52.938Z,-4.10
2023-02-11T03:00:19.961Z,-4.10
2023-02-11T03:00:46.998Z,-4.20
2023-02-11T03:01:13.640Z,-4.20
2023-02-11T03:01:40.223Z,-4.20
2023-02-11T03:02:06.718Z,-4.20
2023-02-11T03:02:31.542Z,-4.20
2023-02-11T03:03:05.620Z,-4.20
2023-02-11T03:03:32.477Z,-4.20
2023-02-11T03:04:00.439Z,-4.20
2023-02-11T03:04:27.271Z,-4.20
2023-02-11T03:04:53.027Z,-4.20
2023-02-11T03:05:18.063Z,-4.20
2023-02-11T03:05:45.697Z,-4.20
2023-02-11T03:06:10.198Z,-4.20
2023-02-11T03:06:34.548Z,-4.20
2023-02-11T03:06:59.860Z,-4.20
2023-02-11T03:07:26.303Z,-4.20
2023-02-11T03:07:52.397Z,-4.20
2023-02-11T03:08:17.973Z,-4.20
2023-02-11T03:08:42.559Z,-4.20
2023-02-11T03:09:10.319Z,-4.20
2023-02-11T03:09:35.836Z,-4.20
2023-02-11T03:10:00.750Z,-4.20
2023-02-11T03:10:25.297Z,-4.20
2023-02-11T03:10:50.024Z,-4.20
2023-02-11T03:11:12.779Z,-4.20
2023-02-11T03:11:36.135Z,-4.20
2023-02-11T03:11:59.198Z,-4.20
2023-02-11T03:12:22.199Z,-4.10
2023-02-11T03:12:45.041Z,-4.20
2023-02-11T03:13:07.817Z,-4.20
2023-02-11T03:13:33.703Z,-4.10
2023-02-11T03:13:56.708Z,-4.10
2023-02-11T03:14:19.500Z,-4.10
2023-02-11T03:14:42.259Z,-4.10
2023-02-11T03:15:06.543Z,-4.10
2023-02-11T03:15:30.947Z,-4.10
2023-02-11T03:15:55.609Z,-4.10
2023-02-11T03:16:20.297Z,-4.10
2023-02-11T03:16:43.091Z,-4.10
2023-02-11T03:17:05.950Z,-4.10
2023-02-11T03:17:28.789Z,-4.20
2023-02-11T03:17:52.272Z,-4.20
2023-02-11T03:18:17.657Z,-4.20
2023-02-11T03:18:41.295Z,-4.20
2023-02-11T03:19:05.703Z,-4.30
2023-02-11T03:19:30.836Z,-4.30
2023-02-11T03:19:53.518Z,-4.30
2023-02-11T03:20:17.953Z,-4.30
2023-02-11T03:20:41.778Z,-4.30
2023-02-11T03:21:05.593Z,-4.30
2023-02-11T03:21:28.418Z,-4.30
2023-02-11T03:21:52.006Z,-4.30
2023-02-11T03:22:17.774Z,-4.20
2023-02-11T03:22:43.520Z,-4.20
2023-02-11T03:23:08.507Z,-4.10
2023-02-11T03:23:33.138Z,-4.10
2023-02-11T03:23:57.128Z,-4.10
2023-02-11T03:24:22.438Z,-4.10
2023-02-11T03:24:45.242Z,-4.10
2023-02-11T03:25:08.319Z,-4.10
2023-02-11T03:25:34.408Z,-4.10
2023-02-11T03:25:59.058Z,-4.20
2023-02-11T03:26:24.764Z,-4.20
2023-02-11T03:26:49.279Z,-4.20
2023-02-11T03:27:18.234Z,-4.20
2023-02-11T03:27:44.303Z,-4.20
2023-02-11T03:28:12.287Z,-4.20
2023-02-11T03:28:37.104Z,-4.20
2023-02-11T03:29:03.879Z,-4.20
2023-02-11T03:29:32.649Z,-4.20
2023-02-11T03:29:57.402Z,-4.20
2023-02-11T03:30:22.173Z,-4.20
2023-02-11T03:30:47.807Z,-4.10
2023-02-11T03:31:13.709Z,-4.10
2023-02-11T03:31:40.449Z,-4.10
2023-02-11T03:32:06.740Z,-4.10
2023-02-11T03:32:30.804Z,-4.10
2023-02-11T03:32:56.453Z,-4.10
2023-02-11T03:33:23.198Z,-4.10
2023-02-11T03:33:52.025Z,-4.10
2023-02-11T03:34:16.019Z,-4.10
2023-02-11T03:34:41.450Z,-4.10
2023-02-11T03:35:05.907Z,-4.10
2023-02-11T03:35:29.398Z,-4.10
2023-02-11T03:35:53.906Z,-4.10
2023-02-11T03:36:18.377Z,-4.10
2023-02-11T03:36:46.308Z,-4.10
2023-02-11T03:37:11.516Z,-4.20
2023-02-11T03:37:35.797Z,-4.20
2023-02-11T03:38:00.348Z,-4.20
2023-02-11T03:38:25.253Z,-4.20
2023-02-11T03:38:52.138Z,-4.20
2023-02-11T03:39:16.535Z,-4.20
2023-02-11T03:39:41.448Z,-4.20
2023-02-11T03:40:05.363Z,-4.20
2023-02-11T03:40:29.889Z,-4.20
2023-02-11T03:40:52.619Z,-4.20
2023-02-11T03:41:16.333Z,-4.20
2023-02-11T03:41:39.034Z,-4.20
2023-02-11T03:42:01.894Z,-4.20
2023-02-11T03:42:24.777Z,-4.20
2023-02-11T03:42:50.640Z,-4.20
2023-02-11T03:43:17.302Z,-4.20
2023-02-11T03:43:42.259Z,-4.20
2023-02-11T03:44:05.109Z,-4.20
2023-02-11T03:44:31.220Z,-4.20
2023-02-11T03:44:56.638Z,-4.20
2023-02-11T03:45:20.624Z,-4.20
2023-02-11T03:45:43.366Z,-4.30
2023-02-11T03:46:06.274Z,-4.30
2023-02-11T03:46:31.045Z,-4.20
2023-02-11T03:46:53.874Z,-4.20
2023-02-11T03:47:16.779Z,-4.30
2023-02-11T03:47:40.173Z,-4.20
2023-02-11T03:48:04.799Z,-4.30
2023-02-11T03:48:31.272Z,-4.30
2023-02-11T03:48:55.742Z,-4.30
2023-02-11T03:49:20.583Z,-4.30
2023-02-11T03:49:43.357Z,-4.30
2023-02-11T03:50:08.063Z,-4.30
2023-02-11T03:50:31.337Z,-4.30
2023-02-11T03:50:54.169Z,-4.30
2023-02-11T03:51:18.078Z,-4.30
2023-02-11T03:51:40.915Z,-4.30
2023-02-11T03:52:04.024Z,-4.40
2023-02-11T03:52:26.824Z,-4.40
2023-02-11T03:52:51.998Z,-4.40
2023-02-11T03:53:14.769Z,-4.40
2023-02-11T03:53:37.447Z,-4.40
2023-02-11T03:54:02.074Z,-4.40
2023-02-11T03:54:26.922Z,-4.40
2023-02-11T03:54:50.623Z,-4.40
2023-02-11T03:55:15.337Z,-4.40
2023-02-11T03:55:39.513Z,-4.30
2023-02-11T03:56:04.473Z,-4.30
2023-02-11T03:56:29.108Z,-4.30
2023-02-11T03:56:54.424Z,-4.30
2023-02-11T03:57:17.099Z,-4.30
2023-02-11T03:57:39.931Z,-4.20
2023-02-11T03:58:02.661Z,-4.20
2023-02-11T03:58:25.452Z,-4.20
2023-02-11T03:58:48.710Z,-4.20
2023-02-11T03:59:11.352Z,-4.30
2023-02-11T03:59:44.794Z,-4.30
2023-02-11T04:00:09.608Z,-4.30
2023-02-11T04:00:33.028Z,-4.30
2023-02-11T04:00:55.878Z,-4.40
2023-02-11T04:01:18.703Z,-4.40
2023-02-11T04:01:41.644Z,-4.40
2023-02-11T04:02:04.321Z,-4.40
2023-02-11T04:02:30.128Z,-4.40
2023-02-11T04:02:53.003Z,-4.40
2023-02-11T04:03:15.787Z,-4.40
2023-02-11T04:03:40.014Z,-4.40
2023-02-11T04:04:02.760Z,-4.50
2023-02-11T04:04:25.493Z,-4.50
2023-02-11T04:04:48.298Z,-4.50
2023-02-11T04:05:12.664Z,-4.50
2023-02-11T04:05:35.581Z,-4.50
2023-02-11T04:05:58.346Z,-4.50
2023-02-11T04:06:21.075Z,-4.50
2023-02-11T04:06:44.346Z,-4.60
2023-02-11T04:07:07.201Z,-4.50
2023-02-11T04:07:30.048Z,-4.50
2023-02-11T04:07:52.742Z,-4.50
2023-02-11T04:08:15.517Z,-4.50
2023-02-11T04:08:38.299Z,-4.60
2023-02-11T04:09:01.009Z,-4.50
2023-02-11T04:09:23.849Z,-4.50
2023-02-11T04:09:46.663Z,-4.50
2023-02-11T04:10:09.574Z,-4.50
2023-02-11T04:10:32.334Z,-4.50
2023-02-11T04:10:54.999Z,-4.50
2023-02-11T04:11:17.654Z,-4.50
2023-02-11T04:11:40.377Z,-4.50
2023-02-11T04:12:03.089Z,-4.50
2023-02-11T04:12:25.812Z,-4.50
2023-02-11T04:12:48.478Z,-4.50
2023-02-11T04:13:11.188Z,-4.50
2023-02-11T04:13:33.937Z,-4.50
2023-02-11T04:13:56.750Z,-4.50
2023-02-11T04:14:19.477Z,-4.50
2023-02-11T04:14:42.242Z,-4.50
2023-02-11T04:15:05.606Z,-4.50
2023-02-11T04:15:28.417Z,-4.50
2023-02-11T04:15:51.369Z,-4.50
2023-02-11T04:16:14.413Z,-4.50
2023-02-11T04:16:37.310Z,-4.50
2023-02-11T04:17:00.418Z,-4.50
2023-02-11T04:17:23.098Z,-4.50
2023-02-11T04:17:46.250Z,-4.50
2023-02-11T04:18:08.973Z,-4.50
2023-02-11T04:18:31.694Z,-4.50
2023-02-11T04:18:55.915Z,-4.60
2023-02-11T04:19:18.633Z,-4.60
2023-02-11T04:19:42.882Z,-4.60
2023-02-11T04:20:06.090Z,-4.60
2023-02-11T04:20:28.801Z,-4.60
2023-02-11T04:20:51.684Z,-4.60
2023-02-11T04:21:14.358Z,-4.60
2023-02-11T04:21:37.118Z,-4.60
2023-02-11T04:21:59.808Z,-4.60
2023-02-11T04:22:22.554Z,-4.70
2023-02-11T04:22:45.364Z,-4.60
2023-02-11T04:23:08.103Z,-4.70
2023-02-11T04:23:30.866Z,-4.60
2023-02-11T04:23:53.594Z,-4.60
2023-02-11T04:24:16.289Z,-4.60
2023-02-11T04:24:39.346Z,-4.60
2023-02-11T04:25:02.242Z,-4.60
2023-02-11T04:25:26.573Z,-4.60
2023-02-11T04:25:50.325Z,-4.60
2023-02-11T04:26:14.493Z,-4.60
2023-02-11T04:26:37.222Z,-4.60
2023-02-11T04:26:59.977Z,-4.60
2023-02-11T04:27:22.958Z,-4.60
2023-02-11T04:27:45.643Z,-4.60
2023-02-11T04:28:08.420Z,-4.60
2023-02-11T04:28:31.905Z,-4.60
2023-02-11T04:28:54.549Z,-4.60
2023-02-11T04:29:17.289Z,-4.60
2023-02-11T04:29:40.005Z,-4.60
2023-02-11T04:30:02.667Z,-4.50
2023-02-11T04:30:25.375Z,-4.60
2023-02-11T04:30:49.668Z,-4.50
2023-02-11T04:31:13.282Z,-4.50
2023-02-11T04:31:36.005Z,-4.60
2023-02-11T04:31:58.847Z,-4.50
2023-02-11T04:32:21.516Z,-4.50
2023-02-11T04:32:44.312Z,-4.50
2023-02-11T04:33:07.039Z,-4.60
2023-02-11T04:33:30.089Z,-4.60
2023-02-11T04:33:52.765Z,-4.50
2023-02-11T04:34:16.894Z,-4.50
2023-02-11T04:34:39.703Z,-4.50
2023-02-11T04:35:03.138Z,-4.50
2023-02-11T04:35:25.910Z,-4.50
2023-02-11T04:35:49.108Z,-4.50
2023-02-11T04:36:13.314Z,-4.50
2023-02-11T04:36:36.009Z,-4.50
2023-02-11T04:36:58.710Z,-4.50
2023-02-11T04:37:21.510Z,-4.50
2023-02-11T04:37:44.266Z,-4.50
2023-02-11T04:38:06.958Z,-4.50
2023-02-11T04:38:29.756Z,-4.40
2023-02-11T04:38:52.435Z,-4.40
2023-02-11T04:39:15.179Z,-4.40
2023-02-11T04:39:37.900Z,-4.40
2023-02-11T04:40:00.594Z,-4.50
2023-02-11T04:40:23.356Z,-4.50
2023-02-11T04:40:46.090Z,-4.50
2023-02-11T04:41:08.880Z,-4.40
2023-02-11T04:41:31.529Z,-4.50
2023-02-11T04:41:54.716Z,-4.40
2023-02-11T04:42:17.434Z,-4.40
2023-02-11T04:42:40.402Z,-4.50
2023-02-11T04:43:03.158Z,-4.50
2023-02-11T04:43:25.894Z,-4.50
2023-02-11T04:43:48.631Z,-4.50
2023-02-11T04:44:11.358Z,-4.50
2023-02-11T04:44:34.076Z,-4.50
2023-02-11T04:44:56.791Z,-4.50
2023-02-11T04:45:19.530Z,-4.50
2023-02-11T04:45:42.332Z,-4.50
2023-02-11T04:46:05.396Z,-4.50
2023-02-11T04:46:28.249Z,-4.50
2023-02-11T04:46:51.010Z,-4.50
2023-02-11T04:47:16.515Z,-4.60
2023-02-11T04:47:39.330Z,-4.40
2023-02-11T04:48:02.572Z,-4.50
2023-02-11T04:48:25.485Z,-4.60
2023-02-11T04:48:48.235Z,-4.60
2023-02-11T04:49:12.495Z,-4.60
2023-02-11T04:49:36.841Z,-4.60
2023-02-11T04:49:59.569Z,-4.60
2023-02-11T04:50:22.251Z,-4.60
2023-02-11T04:50:44.996Z,-4.60
2023-02-11T04:51:07.670Z,-4.50
2023-02-11T04:51:30.385Z,-4.60
2023-02-11T04:51:53.150Z,-4.50
2023-02-11T04:52:15.869Z,-4.50
2023-02-11T04:52:38.779Z,-4.50
2023-02-11T04:53:01.564Z,-4.50
2023-02-11T04:53:24.320Z,-4.50
2023-02-11T04:53:47.206Z,-4.50
2023-02-11T04:54:09.893Z,-4.60
2023-02-11T04:54:32.539Z,-4.50
2023-02-11T04:54:55.370Z,-4.50
2023-02-11T04:55:18.240Z,-4.50
2023-02-11T04:55:40.955Z,-4.50
2023-02-11T04:56:03.935Z,-4.60
2023-02-11T04:56:26.671Z,-4.60
2023-02-11T04:56:50.131Z,-4.60
2023-02-11T04:57:12.838Z,-4.60
2023-02-11T04:57:35.547Z,-4.60
2023-02-11T04:57:58.425Z,-4.60
2023-02-11T04:58:21.224Z,-4.60
2023-02-11T04:58:43.994Z,-4.60
2023-02-11T04:59:07.410Z,-4.60
2023-02-11T04:59:30.110Z,-4.50
2023-02-11T04:59:52.802Z,-4.50
2023-02-11T05:00:16.882Z,-4.50
2023-02-11T05:00:39.607Z,-4.50
2023-02-11T05:01:07.463Z,-4.60
2023-02-11T05:01:30.188Z,-4.60
2023-02-11T05:01:52.883Z,-4.60
2023-02-11T05:02:15.633Z,-4.60
2023-02-11T05:02:38.411Z,-4.60
2023-02-11T05:03:01.044Z,-4.60
2023-02-11T05:03:23.689Z,-4.60
2023-02-11T05:03:46.491Z,-4.60
2023-02-11T05:04:09.371Z,-4.60
2023-02-11T05:04:32.233Z,-4.60
2023-02-11T05:04:56.401Z,-4.60
2023-02-11T05:05:19.212Z,-4.60
2023-02-11T05:05:42.071Z,-4.70
2023-02-11T05:06:05.615Z,-4.60
2023-02-11T05:06:28.587Z,-4.60
2023-02-11T05:06:51.216Z,-4.60
2023-02-11T05:07:13.939Z,-4.60
2023-02-11T05:07:36.690Z,-4.60
2023-02-11T05:07:59.390Z,-4.60
2023-02-11T05:08:22.152Z,-4.60
2023-02-11T05:08:45.029Z,-4.60
2023-02-11T05:09:07.914Z,-4.60
2023-02-11T05:09:30.684Z,-4.60
2023-02-11T05:09:54.398Z,-4.60
2023-02-11T05:10:17.183Z,-4.50
2023-02-11T05:10:40.017Z,-4.50
2023-02-11T05:11:02.678Z,-4.50
2023-02-11T05:11:25.749Z,-4.60
2023-02-11T05:11:48.439Z,-4.60
2023-02-11T05:12:11.189Z,-4.60
2023-02-11T05:12:34.070Z,-4.60
2023-02-11T05:12:56.794Z,-4.60
2023-02-11T05:13:19.514Z,-4.60
2023-02-11T05:13:42.234Z,-4.60
2023-02-11T05:14:05.000Z,-4.70
2023-02-11T05:14:27.758Z,-4.70
2023-02-11T05:14:50.430Z,-4.70
2023-02-11T05:15:13.180Z,-4.70
2023-02-11T05:15:35.983Z,-4.70
2023-02-11T05:15:58.713Z,-4.70
2023-02-11T05:16:21.631Z,-4.70
2023-02-11T05:16:44.429Z,-4.70
2023-02-11T05:17:07.191Z,-4.70
2023-02-11T05:17:30.069Z,-4.70
2023-02-11T05:17:52.808Z,-4.70
2023-02-11T05:18:15.530Z,-4.50